Time;durP1;ratioP1;P1;durP2;ratioP2;P2;SDS_P1;SDS_P2;PMS_P1;PMS_P2;Temp;Humidity;BMP_temperature;BMP_pressure;BME280_temperature;BME280_humidity;BME280_pressure;Samples;Min_cycle;Max_cycle;Signal;HPM_P1;HPM_P2
2021/07/14 00:01:16;;;;;;;26.55;19.85;;;19.30;99.90;;;;;;5032730;28;20044;-86
2021/07/14 00:03:42;;;;;;;27.98;19.42;;;19.30;99.90;;;;;;5032564;28;20029;-86
2021/07/14 00:06:08;;;;;;;28.75;20.20;;;19.30;99.90;;;;;;5032596;28;20040;-84
2021/07/14 00:08:33;;;;;;;26.77;21.00;;;19.30;99.90;;;;;;5032437;28;20100;-86
2021/07/14 00:10:59;;;;;;;26.00;18.95;;;19.30;99.90;;;;;;5048975;28;20033;-85
2021/07/14 00:13:32;;;;;;;32.75;23.63;;;19.40;99.90;;;;;;5049137;28;20032;-86
2021/07/14 00:24:04;;;;;;;31.58;21.92;;;19.30;99.90;;;;;;5065002;28;20123;-85
2021/07/14 00:26:30;;;;;;;25.17;19.05;;;19.30;99.90;;;;;;5048638;28;20469;-85
2021/07/14 00:28:55;;;;;;;31.92;21.85;;;19.30;99.90;;;;;;5064949;28;20075;-86
2021/07/14 00:31:21;;;;;;;29.52;20.35;;;19.30;99.90;;;;;;5048659;28;20037;-86
2021/07/14 00:33:48;;;;;;;35.80;22.30;;;19.30;99.90;;;;;;5048379;28;20525;-84
2021/07/14 00:36:14;;;;;;;35.55;24.52;;;19.30;99.90;;;;;;5048356;28;20056;-85
2021/07/14 00:38:40;;;;;;;27.67;19.50;;;19.30;99.90;;;;;;5064718;28;20033;-85
2021/07/14 00:41:06;;;;;;;25.23;19.58;;;19.30;99.90;;;;;;5065098;28;20044;-86
2021/07/14 00:43:34;;;;;;;34.78;23.20;;;19.30;99.90;;;;;;5065665;28;20025;-86
2021/07/14 00:49:36;;;;;;;31.23;19.88;;;19.30;99.90;;;;;;4939670;29;20052;-85
2021/07/14 00:52:02;;;;;;;34.83;23.40;;;19.20;99.90;;;;;;5000731;23;20080;-86
2021/07/14 00:54:27;;;;;;;36.13;23.33;;;19.20;99.90;;;;;;5028282;28;20037;-86
2021/07/14 00:56:53;;;;;;;29.50;22.08;;;19.20;99.90;;;;;;5028596;28;20029;-86
2021/07/14 00:59:19;;;;;;;33.60;23.58;;;19.20;99.90;;;;;;5028348;28;20065;-86
2021/07/14 01:01:46;;;;;;;25.83;18.92;;;19.20;99.90;;;;;;5040367;28;20068;-85
2021/07/14 01:04:29;;;;;;;35.53;23.52;;;19.20;99.90;;;;;;5028618;28;20037;-86
2021/07/14 01:07:11;;;;;;;25.15;17.33;;;19.20;99.90;;;;;;5028485;28;20038;-86
2021/07/14 01:09:40;;;;;;;27.80;19.33;;;19.20;99.90;;;;;;5028220;28;20493;-87
2021/07/14 01:12:15;;;;;;;34.47;22.33;;;19.20;99.90;;;;;;5012193;28;20033;-85
2021/07/14 01:14:54;;;;;;;31.50;22.98;;;19.10;99.90;;;;;;5011769;28;20116;-85
2021/07/14 01:17:24;;;;;;;30.98;21.05;;;19.10;99.90;;;;;;5028599;28;20384;-85
2021/07/14 01:20:26;;;;;;;29.90;21.95;;;19.10;99.90;;;;;;5028080;28;20038;-86
2021/07/14 01:22:52;;;;;;;35.42;22.52;;;19.10;99.90;;;;;;5044966;28;20044;-86
2021/07/14 01:26:09;;;;;;;31.33;22.30;;;19.10;99.90;;;;;;5044436;28;20029;-85
2021/07/14 01:28:39;;;;;;;34.08;22.63;;;19.10;99.90;;;;;;4968401;28;20624;-86
2021/07/14 01:31:06;;;;;;;33.92;21.63;;;19.10;99.90;;;;;;5039529;28;20038;-86
2021/07/14 01:33:36;;;;;;;27.17;18.40;;;19.10;99.90;;;;;;5028139;28;20029;-86
2021/07/14 01:36:05;;;;;;;31.17;20.40;;;19.10;99.90;;;;;;5044363;28;20089;-86
2021/07/14 01:38:35;;;;;;;25.55;18.92;;;19.10;99.90;;;;;;5027617;28;20037;-85
2021/07/14 01:41:01;;;;;;;26.58;19.02;;;19.10;99.90;;;;;;5027571;28;20034;-85
2021/07/14 01:43:34;;;;;;;29.05;19.27;;;19.10;99.90;;;;;;5027836;28;20056;-85
2021/07/14 01:46:01;;;;;;;27.80;20.35;;;19.10;99.90;;;;;;5027974;28;20025;-84
2021/07/14 01:48:30;;;;;;;27.00;19.55;;;19.10;99.90;;;;;;5043656;22;20046;-86
2021/07/14 01:50:57;;;;;;;33.03;21.05;;;19.10;99.90;;;;;;5009223;28;20108;-85
2021/07/14 01:53:24;;;;;;;30.70;21.65;;;19.10;99.90;;;;;;5028050;28;20033;-85
2021/07/14 01:55:51;;;;;;;35.13;22.33;;;19.00;99.90;;;;;;5029882;28;20469;-85
2021/07/14 01:58:18;;;;;;;30.67;20.23;;;19.00;99.90;;;;;;5014863;28;20393;-85
2021/07/14 02:00:44;;;;;;;30.92;21.63;;;19.00;99.90;;;;;;5031108;28;20065;-84
2021/07/14 02:06:01;;;;;;;29.42;18.67;;;19.00;99.90;;;;;;5031319;28;20033;-86
2021/07/14 02:08:28;;;;;;;26.17;18.80;;;19.00;99.90;;;;;;5014829;28;20037;-84
2021/07/14 02:10:55;;;;;;;29.35;18.02;;;19.00;99.90;;;;;;5014759;28;20030;-85
2021/07/14 02:13:24;;;;;;;27.60;17.00;;;19.00;99.90;;;;;;5014963;28;20037;-84
2021/07/14 02:16:00;;;;;;;33.83;21.85;;;19.00;99.90;;;;;;5039218;28;20044;-84
2021/07/14 02:18:33;;;;;;;30.40;21.17;;;18.90;99.90;;;;;;5030889;28;20033;-86
2021/07/14 02:20:59;;;;;;;27.45;18.50;;;19.00;99.90;;;;;;5030733;28;20037;-85
2021/07/14 02:23:25;;;;;;;28.85;20.60;;;19.00;99.90;;;;;;5031134;28;20052;-85
2021/07/14 02:25:53;;;;;;;23.42;15.70;;;18.90;99.90;;;;;;5030768;28;20045;-86
2021/07/14 02:28:19;;;;;;;25.63;16.95;;;18.90;99.90;;;;;;5030781;28;20061;-85
2021/07/14 02:30:45;;;;;;;25.80;17.48;;;19.00;99.90;;;;;;5030715;28;20083;-84
2021/07/14 02:33:12;;;;;;;27.45;18.27;;;19.00;99.90;;;;;;5030697;28;20459;-85
2021/07/14 02:35:41;;;;;;;31.80;20.92;;;18.90;99.90;;;;;;5030524;28;20034;-86
2021/07/14 02:38:27;;;;;;;33.17;20.05;;;18.90;99.90;;;;;;5030623;28;20025;-85
2021/07/14 02:40:57;;;;;;;29.17;18.70;;;18.90;99.90;;;;;;5030268;28;20033;-86
2021/07/14 02:43:28;;;;;;;32.05;19.88;;;18.90;99.90;;;;;;5046983;28;20044;-85
2021/07/14 02:45:59;;;;;;;29.80;19.80;;;18.90;99.90;;;;;;5047089;28;20038;-85
2021/07/14 02:48:26;;;;;;;30.25;19.52;;;18.80;99.90;;;;;;5027874;23;20046;-86
2021/07/14 02:50:54;;;;;;;35.53;21.00;;;18.80;99.90;;;;;;5030699;28;20044;-85
2021/07/14 02:53:24;;;;;;;31.33;19.83;;;18.90;99.90;;;;;;5047038;28;20037;-85
2021/07/14 02:56:00;;;;;;;28.35;16.83;;;18.90;99.90;;;;;;5047325;28;20492;-85
2021/07/14 02:58:29;;;;;;;26.98;16.30;;;18.90;99.90;;;;;;5046645;28;20048;-85
2021/07/14 03:00:56;;;;;;;32.22;18.90;;;18.90;99.90;;;;;;5030381;28;20026;-86
2021/07/14 03:03:23;;;;;;;30.60;18.77;;;18.80;99.90;;;;;;5027063;28;20033;-85
2021/07/14 03:05:56;;;;;;;31.40;19.55;;;18.80;99.90;;;;;;4994633;28;20026;-85
2021/07/14 03:08:26;;;;;;;28.98;18.83;;;18.90;99.90;;;;;;5010066;28;20033;-85
2021/07/14 03:10:58;;;;;;;36.67;21.27;;;18.90;99.90;;;;;;4994258;28;20088;-85
2021/07/14 03:13:26;;;;;;;35.58;22.27;;;18.80;99.90;;;;;;5010208;28;20076;-85
2021/07/14 03:15:53;;;;;;;36.75;21.98;;;18.90;99.90;;;;;;5005639;28;20034;-85
2021/07/14 03:18:22;;;;;;;31.15;21.42;;;18.90;99.90;;;;;;5013632;28;20092;-84
2021/07/14 03:20:52;;;;;;;31.20;19.23;;;18.90;99.90;;;;;;5029810;28;20030;-85
2021/07/14 03:23:18;;;;;;;32.38;20.65;;;18.80;99.90;;;;;;5029926;28;20468;-85
2021/07/14 03:25:48;;;;;;;34.33;22.23;;;18.90;99.90;;;;;;5029763;28;20073;-85
2021/07/14 03:28:18;;;;;;;32.85;18.73;;;18.80;99.90;;;;;;5029410;28;20037;-84
2021/07/14 03:30:46;;;;;;;29.95;18.20;;;18.80;99.90;;;;;;5029568;28;20064;-85
2021/07/14 03:33:13;;;;;;;33.03;20.02;;;18.90;99.90;;;;;;5013299;28;20064;-84
2021/07/14 03:35:39;;;;;;;32.63;19.20;;;18.80;99.90;;;;;;5013030;28;20101;-83
2021/07/14 03:38:09;;;;;;;32.90;19.20;;;18.80;99.90;;;;;;5047042;28;20390;-85
2021/07/14 03:40:36;;;;;;;28.67;17.45;;;18.80;99.90;;;;;;5029344;28;20056;-83
2021/07/14 03:43:03;;;;;;;30.25;19.20;;;18.80;99.90;;;;;;5012971;28;20056;-85
2021/07/14 03:45:31;;;;;;;30.75;19.17;;;18.80;99.90;;;;;;5029489;28;20400;-85
2021/07/14 03:47:58;;;;;;;33.40;20.17;;;18.80;99.90;;;;;;5021454;22;20109;-84
2021/07/14 03:50:24;;;;;;;30.77;20.10;;;18.80;99.90;;;;;;5028184;28;20045;-86
2021/07/14 03:52:52;;;;;;;28.20;19.05;;;18.80;99.90;;;;;;5029406;28;20038;-85
2021/07/14 03:55:18;;;;;;;24.35;15.85;;;18.80;99.90;;;;;;5029619;28;20037;-86
2021/07/14 03:57:44;;;;;;;31.77;20.42;;;18.80;99.90;;;;;;5012903;28;20492;-85
2021/07/14 04:00:10;;;;;;;29.27;19.00;;;18.80;99.90;;;;;;5029212;28;20033;-86
2021/07/14 04:02:37;;;;;;;30.08;19.67;;;18.80;99.90;;;;;;5012935;28;20113;-85
2021/07/14 04:05:05;;;;;;;36.40;22.23;;;18.70;99.90;;;;;;5029313;28;20041;-85
2021/07/14 04:07:33;;;;;;;37.83;22.48;;;18.70;99.90;;;;;;5029133;28;20037;-85
2021/07/14 04:10:00;;;;;;;29.10;19.13;;;18.70;99.90;;;;;;5046849;28;20040;-86
2021/07/14 04:12:26;;;;;;;32.20;19.67;;;18.70;99.90;;;;;;5028994;28;20037;-85
2021/07/14 04:14:52;;;;;;;36.70;22.27;;;18.70;99.90;;;;;;5050367;28;20107;-86
2021/07/14 04:17:18;;;;;;;35.78;21.08;;;18.80;99.90;;;;;;5032095;28;20033;-85
2021/07/14 04:19:44;;;;;;;34.97;20.63;;;18.70;99.90;;;;;;5048179;28;20029;-85
2021/07/14 04:22:11;;;;;;;31.83;19.70;;;18.70;99.90;;;;;;5031944;28;20554;-85
2021/07/14 04:24:38;;;;;;;38.08;23.10;;;18.70;99.90;;;;;;5032319;28;20029;-85
2021/07/14 04:27:04;;;;;;;40.15;23.50;;;18.70;99.90;;;;;;5031853;28;20044;-84
2021/07/14 04:29:29;;;;;;;32.63;20.98;;;18.60;99.90;;;;;;5031669;28;20037;-85
2021/07/14 04:31:55;;;;;;;37.28;22.65;;;18.70;99.90;;;;;;5031996;28;20039;-84
2021/07/14 04:34:25;;;;;;;39.97;22.48;;;18.70;99.90;;;;;;5035046;28;20057;-83
2021/07/14 04:36:51;;;;;;;30.98;19.10;;;18.60;99.90;;;;;;5023452;28;20378;-83
2021/07/14 04:39:17;;;;;;;35.08;21.30;;;18.60;99.90;;;;;;5028171;28;20029;-83
2021/07/14 04:41:42;;;;;;;38.15;21.80;;;18.60;99.90;;;;;;5045811;28;20048;-83
2021/07/14 04:44:10;;;;;;;37.33;23.08;;;18.60;99.90;;;;;;5027677;28;20033;-83
2021/07/14 04:46:37;;;;;;;36.30;21.48;;;18.60;99.90;;;;;;5027777;28;20056;-83
2021/07/14 04:49:28;;;;;;;31.90;20.88;;;18.60;99.90;;;;;;5031717;22;20113;-84
2021/07/14 04:51:53;;;;;;;35.13;20.58;;;18.60;99.90;;;;;;5011861;28;20038;-84
2021/07/14 04:54:20;;;;;;;31.08;18.70;;;18.60;99.90;;;;;;5007526;28;20030;-85
2021/07/14 04:56:49;;;;;;;31.17;20.80;;;18.60;99.90;;;;;;5007612;28;20033;-83
2021/07/14 04:59:16;;;;;;;32.22;17.80;;;18.60;99.90;;;;;;5015883;28;20026;-83
2021/07/14 05:01:54;;;;;;;;;;;;;;;;;;;;;
2021/07/14 05:07:09;;;;;;;25.38;16.02;;;18.50;99.90;;;;;;5003615;28;20046;-84
2021/07/14 05:09:35;;;;;;;23.38;15.90;;;18.50;99.90;;;;;;4971735;28;20030;-84
2021/07/14 05:12:00;;;;;;;24.85;17.13;;;18.50;99.90;;;;;;4972027;28;20536;-84
2021/07/14 05:14:26;;;;;;;25.65;16.23;;;18.50;99.90;;;;;;4988070;28;20041;-84
2021/07/14 05:16:51;;;;;;;20.98;12.52;;;18.50;99.90;;;;;;4971736;28;20042;-83
2021/07/14 05:19:17;;;;;;;24.25;16.13;;;18.50;99.90;;;;;;4987589;28;20023;-84
2021/07/14 05:21:43;;;;;;;25.70;16.80;;;18.50;99.90;;;;;;4970769;28;20053;-85
2021/07/14 05:24:10;;;;;;;22.00;16.15;;;18.50;99.90;;;;;;4971519;28;20034;-84
2021/07/14 05:26:36;;;;;;;23.50;14.07;;;18.50;99.90;;;;;;4971750;28;20371;-83
2021/07/14 05:29:03;;;;;;;25.48;15.02;;;18.50;99.90;;;;;;4971109;28;20034;-85
2021/07/14 05:31:30;;;;;;;21.60;14.48;;;18.60;99.90;;;;;;4975195;28;20038;-84
2021/07/14 05:33:55;;;;;;;31.17;18.73;;;18.60;99.90;;;;;;4975424;28;20044;-83
2021/07/14 05:36:21;;;;;;;22.98;16.23;;;18.50;99.90;;;;;;5008954;28;20062;-83
2021/07/14 05:38:47;;;;;;;27.02;16.67;;;18.50;99.90;;;;;;5008815;28;20030;-82
2021/07/14 05:41:12;;;;;;;32.45;19.15;;;18.50;99.90;;;;;;4975430;28;20061;-83
2021/07/14 05:43:38;;;;;;;25.77;18.20;;;18.50;99.90;;;;;;4975434;28;20034;-83
2021/07/14 05:46:04;;;;;;;18.13;12.63;;;18.50;99.90;;;;;;4975373;28;20117;-84
2021/07/14 05:48:30;;;;;;;21.75;14.48;;;18.60;99.90;;;;;;4981152;23;20034;-84
2021/07/14 05:50:57;;;;;;;27.75;16.67;;;18.60;99.90;;;;;;5060067;28;20039;-84
2021/07/14 05:53:23;;;;;;;29.70;17.33;;;18.60;99.90;;;;;;5050255;28;20051;-88
2021/07/14 05:55:49;;;;;;;24.05;13.55;;;18.60;99.90;;;;;;5050723;28;20055;-82
2021/07/14 05:58:15;;;;;;;27.80;16.83;;;18.60;99.90;;;;;;5050253;28;20119;-84
2021/07/14 06:00:41;;;;;;;25.45;15.05;;;18.60;99.90;;;;;;5033769;28;20100;-83
2021/07/14 06:03:07;;;;;;;19.67;12.18;;;18.70;99.90;;;;;;5034052;28;20063;-83
2021/07/14 06:05:35;;;;;;;25.48;15.10;;;18.60;99.90;;;;;;5006760;28;20040;-84
2021/07/14 06:08:01;;;;;;;26.20;15.90;;;18.60;99.90;;;;;;5049328;28;20500;-86
2021/07/14 06:10:28;;;;;;;22.63;13.43;;;18.60;99.90;;;;;;5033491;28;20040;-83
2021/07/14 06:12:56;;;;;;;22.52;13.38;;;18.60;99.90;;;;;;5050194;28;20039;-84
2021/07/14 06:15:23;;;;;;;23.83;14.10;;;18.60;99.90;;;;;;5030122;28;20028;-84
2021/07/14 06:17:49;;;;;;;22.25;13.63;;;18.70;99.90;;;;;;5046566;28;20029;-84
2021/07/14 06:20:15;;;;;;;24.42;14.77;;;18.70;99.90;;;;;;5046091;28;20716;-85
2021/07/14 06:22:41;;;;;;;25.08;14.98;;;18.70;99.90;;;;;;5046253;28;20104;-84
2021/07/14 06:25:09;;;;;;;20.85;12.75;;;18.70;99.90;;;;;;5046809;28;20029;-85
2021/07/14 06:27:38;;;;;;;23.20;14.50;;;18.80;99.90;;;;;;5046699;28;20040;-84
2021/07/14 06:30:07;;;;;;;25.73;14.70;;;18.80;99.90;;;;;;5046353;28;20097;-84
2021/07/14 06:32:33;;;;;;;21.70;12.68;;;18.90;99.90;;;;;;5046537;28;20033;-84
2021/07/14 06:35:03;;;;;;;29.58;16.65;;;18.80;99.90;;;;;;5046405;28;20041;-84
2021/07/14 06:37:29;;;;;;;24.63;14.20;;;18.80;99.90;;;;;;5046560;28;20165;-84
2021/07/14 06:39:55;;;;;;;23.95;16.02;;;18.80;99.90;;;;;;5046321;28;20507;-84
2021/07/14 06:42:20;;;;;;;23.40;14.25;;;18.80;99.90;;;;;;5045371;28;20044;-84
2021/07/14 06:44:46;;;;;;;25.92;15.75;;;18.80;99.90;;;;;;5029553;28;20111;-84
2021/07/14 06:47:35;;;;;;;27.05;16.98;;;18.80;99.90;;;;;;5046106;28;20072;-84
2021/07/14 06:50:03;;;;;;;25.02;15.32;;;18.70;99.90;;;;;;4952889;29;20058;-83
2021/07/14 06:52:28;;;;;;;25.60;16.00;;;18.70;99.90;;;;;;5023132;23;20054;-84
2021/07/14 06:54:54;;;;;;;24.20;14.32;;;18.70;99.90;;;;;;4990705;28;20034;-83
2021/07/14 06:57:21;;;;;;;22.52;14.07;;;18.80;99.90;;;;;;4990466;28;20046;-84
2021/07/14 06:59:46;;;;;;;24.95;15.13;;;18.70;99.90;;;;;;4974210;28;20030;-84
2021/07/14 07:02:12;;;;;;;24.05;15.57;;;18.80;99.90;;;;;;5007754;28;20085;-84
2021/07/14 07:04:38;;;;;;;23.55;14.40;;;18.80;99.90;;;;;;4990521;28;20026;-84
2021/07/14 07:07:03;;;;;;;24.55;15.82;;;18.80;99.90;;;;;;4974196;28;20045;-84
2021/07/14 07:09:29;;;;;;;27.02;16.30;;;18.80;99.90;;;;;;4974066;28;20066;-84
2021/07/14 07:11:54;;;;;;;27.20;17.70;;;18.70;99.90;;;;;;4990488;28;20035;-84
2021/07/14 07:14:20;;;;;;;27.67;16.05;;;18.70;99.90;;;;;;4974178;28;20040;-83
2021/07/14 07:16:46;;;;;;;24.13;14.45;;;18.70;99.90;;;;;;4992427;28;20152;-84
2021/07/14 07:19:11;;;;;;;26.08;17.35;;;18.80;99.90;;;;;;5009606;28;20149;-83
2021/07/14 07:21:37;;;;;;;30.27;18.30;;;18.70;99.90;;;;;;4993268;28;20045;-84
2021/07/14 07:24:03;;;;;;;27.55;17.83;;;18.70;99.90;;;;;;4992881;28;20050;-84
2021/07/14 07:26:29;;;;;;;26.58;16.65;;;18.70;99.90;;;;;;4993025;28;20034;-84
2021/07/14 07:29:04;;;;;;;26.35;16.27;;;18.70;99.90;;;;;;4992972;28;20030;-83
2021/07/14 07:31:31;;;;;;;24.60;16.92;;;18.70;99.90;;;;;;5009146;28;20080;-84
2021/07/14 07:33:56;;;;;;;23.77;16.38;;;18.70;99.90;;;;;;4992943;28;20038;-84
2021/07/14 07:36:22;;;;;;;22.35;15.68;;;18.70;99.90;;;;;;4992691;28;20037;-84
2021/07/14 07:38:48;;;;;;;23.50;14.88;;;18.80;99.90;;;;;;4992760;28;20025;-84
2021/07/14 07:41:15;;;;;;;18.63;12.80;;;18.80;99.90;;;;;;4992649;28;20061;-83
2021/07/14 07:43:41;;;;;;;23.50;13.70;;;18.80;99.90;;;;;;4992649;28;20042;-83
2021/07/14 07:46:07;;;;;;;17.42;12.20;;;18.90;99.90;;;;;;4992308;28;20482;-84
2021/07/14 07:48:33;;;;;;;16.45;12.60;;;18.80;99.90;;;;;;5000988;23;20057;-84
2021/07/14 07:51:00;;;;;;;15.35;11.38;;;18.90;99.90;;;;;;5008906;28;20037;-84
2021/07/14 07:53:25;;;;;;;18.30;13.35;;;18.90;99.90;;;;;;4992580;28;20421;-84
2021/07/14 07:55:52;;;;;;;20.90;13.43;;;18.90;99.90;;;;;;4992769;28;20063;-85
2021/07/14 07:58:19;;;;;;;19.60;13.48;;;18.80;99.90;;;;;;4992580;28;20037;-83
2021/07/14 08:00:47;;;;;;;15.63;12.38;;;18.80;99.90;;;;;;5008712;28;20030;-83
2021/07/14 08:03:13;;;;;;;15.52;12.07;;;18.90;99.90;;;;;;4992441;28;20040;-84
2021/07/14 08:05:38;;;;;;;15.52;11.27;;;18.90;99.90;;;;;;4992488;28;20053;-84
2021/07/14 08:08:04;;;;;;;16.83;12.20;;;18.90;99.90;;;;;;5008493;28;20523;-84
2021/07/14 08:10:31;;;;;;;15.48;11.75;;;19.00;99.90;;;;;;4992544;28;20030;-84
2021/07/14 08:12:56;;;;;;;16.95;12.85;;;19.00;99.90;;;;;;5008648;28;20045;-85
2021/07/14 08:15:22;;;;;;;18.05;12.75;;;18.90;99.90;;;;;;5016022;28;20017;-84
2021/07/14 08:17:48;;;;;;;15.45;11.65;;;18.90;99.90;;;;;;5011500;28;20484;-84
2021/07/14 08:20:14;;;;;;;15.95;11.75;;;19.00;99.90;;;;;;5044637;28;20037;-84
2021/07/14 08:22:43;;;;;;;20.63;11.57;;;19.00;99.90;;;;;;5027971;28;20041;-84
2021/07/14 08:25:12;;;;;;;18.00;13.18;;;19.10;99.90;;;;;;5028012;28;20250;-84
2021/07/14 08:27:39;;;;;;;15.27;11.82;;;19.10;99.90;;;;;;5027530;28;20051;-83
2021/07/14 08:30:06;;;;;;;14.57;10.93;;;19.10;99.90;;;;;;5011268;28;20040;-84
2021/07/14 08:32:32;;;;;;;16.88;13.55;;;19.20;99.90;;;;;;5044163;28;20029;-83
2021/07/14 08:34:58;;;;;;;20.40;14.55;;;19.10;99.90;;;;;;5044283;28;20037;-83
2021/07/14 08:37:25;;;;;;;22.20;15.48;;;19.10;99.90;;;;;;5027608;28;20123;-84
2021/07/14 08:39:52;;;;;;;21.02;14.15;;;19.00;99.90;;;;;;5011147;28;20084;-84
2021/07/14 08:42:20;;;;;;;17.73;14.40;;;19.00;99.90;;;;;;5027345;28;20047;-84
2021/07/14 08:44:48;;;;;;;19.45;13.18;;;19.00;99.90;;;;;;5010618;28;20041;-83
2021/07/14 08:47:15;;;;;;;17.63;14.05;;;19.00;99.90;;;;;;5027208;28;20041;-84
2021/07/14 08:49:43;;;;;;;17.48;12.70;;;19.00;99.90;;;;;;5041107;23;20053;-83
2021/07/14 08:52:12;;;;;;;17.27;13.80;;;19.10;99.90;;;;;;5008455;28;20102;-84
2021/07/14 08:54:41;;;;;;;18.98;14.85;;;19.10;99.90;;;;;;5008055;28;20037;-85
2021/07/14 08:57:11;;;;;;;20.52;15.00;;;19.10;99.90;;;;;;5007863;28;20033;-83
2021/07/14 08:59:37;;;;;;;19.50;13.77;;;19.10;99.90;;;;;;5025474;28;20040;-83
2021/07/14 09:02:04;;;;;;;18.17;14.35;;;19.10;99.90;;;;;;4991610;28;20121;-83
2021/07/14 09:04:30;;;;;;;16.73;13.07;;;19.10;99.90;;;;;;5007389;28;20045;-84
2021/07/14 09:06:55;;;;;;;19.92;14.70;;;19.20;99.90;;;;;;5007806;28;20049;-83
2021/07/14 09:09:22;;;;;;;19.55;15.07;;;19.20;99.90;;;;;;5007913;28;20026;-83
2021/07/14 09:11:53;;;;;;;18.17;14.30;;;19.10;99.90;;;;;;4991535;28;20432;-84
2021/07/14 09:14:34;;;;;;;19.40;14.35;;;19.20;99.90;;;;;;4991786;28;20458;-84
2021/07/14 09:17:22;;;;;;;17.85;12.73;;;19.20;99.90;;;;;;4991410;28;20060;-84
2021/07/14 09:19:51;;;;;;;17.30;12.73;;;19.30;99.90;;;;;;4991309;28;20421;-84
2021/07/14 09:22:26;;;;;;;17.58;12.43;;;19.30;99.90;;;;;;5007377;28;20038;-83
2021/07/14 09:24:56;;;;;;;18.95;13.88;;;19.40;99.90;;;;;;4991276;28;20068;-83
2021/07/14 09:27:27;;;;;;;18.35;13.50;;;19.40;99.90;;;;;;4991278;28;20037;-83
2021/07/14 09:30:18;;;;;;;19.65;13.45;;;19.50;99.90;;;;;;5007530;28;20093;-84
2021/07/14 09:32:58;;;;;;;19.88;15.45;;;19.40;99.90;;;;;;5007164;28;20036;-84
2021/07/14 09:35:30;;;;;;;18.02;14.00;;;19.40;99.90;;;;;;5007336;28;20057;-84
2021/07/14 09:38:08;;;;;;;19.30;13.95;;;19.40;99.90;;;;;;4990900;28;20034;-83
2021/07/14 09:40:34;;;;;;;17.83;13.93;;;19.40;99.90;;;;;;5007390;28;20038;-84
2021/07/14 09:43:07;;;;;;;22.80;14.05;;;19.50;99.90;;;;;;4990972;28;20062;-84
2021/07/14 09:45:52;;;;;;;18.00;13.60;;;19.50;99.90;;;;;;5007430;28;20117;-84
2021/07/14 09:48:40;;;;;;;18.67;13.95;;;19.50;99.90;;;;;;4998377;23;20058;-83
2021/07/14 09:51:12;;;;;;;21.30;14.95;;;19.50;99.90;;;;;;5007093;28;20050;-84
2021/07/14 09:53:43;;;;;;;17.92;13.60;;;19.50;99.90;;;;;;5007317;28;20037;-84
2021/07/14 09:56:16;;;;;;;19.25;12.98;;;19.50;99.90;;;;;;5007251;28;20097;-84
2021/07/14 09:58:43;;;;;;;22.42;16.48;;;19.60;99.90;;;;;;4990824;28;20048;-84
2021/07/14 10:01:16;;;;;;;22.02;15.43;;;19.50;99.90;;;;;;4990988;28;20057;-83
2021/07/14 10:03:50;;;;;;;23.65;17.10;;;19.50;99.90;;;;;;5024640;28;20457;-84
2021/07/14 10:06:17;;;;;;;24.70;16.27;;;19.50;99.90;;;;;;5007016;28;20059;-84
2021/07/14 10:08:46;;;;;;;22.23;15.95;;;19.60;99.90;;;;;;4990754;28;20038;-83
2021/07/14 10:11:23;;;;;;;22.05;16.00;;;19.60;99.90;;;;;;4990988;28;20041;-83
2021/07/14 10:14:00;;;;;;;21.13;15.43;;;19.70;99.90;;;;;;5007104;28;20049;-84
2021/07/14 10:16:35;;;;;;;22.35;16.20;;;19.80;99.90;;;;;;5040629;28;20273;-84
2021/07/14 10:19:02;;;;;;;25.25;15.63;;;19.80;99.90;;;;;;5013717;28;20033;-83
2021/07/14 10:21:29;;;;;;;25.08;18.50;;;19.80;99.90;;;;;;5013731;28;20413;-83
2021/07/14 10:24:00;;;;;;;28.85;19.08;;;19.80;99.90;;;;;;5030216;28;20029;-83
2021/07/14 10:26:26;;;;;;;32.78;20.52;;;19.80;99.90;;;;;;5013668;28;20053;-84
2021/07/14 10:28:54;;;;;;;28.20;19.42;;;19.70;99.90;;;;;;4997276;28;20034;-84
2021/07/14 10:31:22;;;;;;;29.88;20.48;;;19.70;99.90;;;;;;5047951;28;20021;-84
2021/07/14 10:33:52;;;;;;;29.63;18.77;;;19.70;99.90;;;;;;5013516;28;20059;-84
2021/07/14 10:36:25;;;;;;;28.83;19.23;;;19.70;99.90;;;;;;5013356;28;20076;-84
2021/07/14 10:38:55;;;;;;;29.58;18.83;;;19.70;99.90;;;;;;5029930;28;20041;-85
2021/07/14 10:41:22;;;;;;;29.10;18.45;;;19.80;99.90;;;;;;5013454;28;20045;-83
2021/07/14 10:43:50;;;;;;;33.53;21.63;;;19.80;99.90;;;;;;5029636;28;20125;-83
2021/07/14 10:46:37;;;;;;;31.90;19.35;;;19.80;99.90;;;;;;5013172;28;20043;-83
2021/07/14 10:49:06;;;;;;;32.22;21.38;;;19.70;99.90;;;;;;5016935;23;20053;-84
2021/07/14 10:51:33;;;;;;;34.93;22.27;;;19.70;99.90;;;;;;5047539;28;20401;-84
2021/07/14 10:54:05;;;;;;;37.30;23.27;;;19.50;99.90;;;;;;5033182;28;20033;-84
2021/07/14 10:56:36;;;;;;;35.08;21.40;;;19.50;99.90;;;;;;5049630;28;20033;-84
2021/07/14 10:59:04;;;;;;;36.05;22.30;;;19.50;99.90;;;;;;5032912;28;20048;-85
2021/07/14 11:01:51;;;;;;;34.65;21.85;;;19.50;99.90;;;;;;5049729;28;20048;-84
2021/07/14 11:04:26;;;;;;;39.05;23.80;;;19.40;99.90;;;;;;5049581;28;20063;-84
2021/07/14 11:06:54;;;;;;;40.30;24.58;;;19.40;99.90;;;;;;5032865;28;20162;-85
2021/07/14 11:09:33;;;;;;;33.80;23.70;;;19.40;99.90;;;;;;5049481;28;20116;-84
2021/07/14 11:11:59;;;;;;;36.15;23.02;;;19.40;99.90;;;;;;5032983;28;20029;-84
2021/07/14 11:14:39;;;;;;;34.63;22.35;;;19.40;99.90;;;;;;5049325;28;20036;-84
2021/07/14 11:17:07;;;;;;;32.88;20.98;;;19.30;99.90;;;;;;5029302;28;20041;-83
2021/07/14 11:19:52;;;;;;;32.38;20.88;;;19.40;99.90;;;;;;5029125;28;20473;-84
2021/07/14 11:22:40;;;;;;;33.97;19.85;;;19.40;99.90;;;;;;5012812;28;20061;-83
2021/07/14 11:25:09;;;;;;;38.10;23.50;;;19.50;99.90;;;;;;5012900;28;20044;-85
2021/07/14 11:27:34;;;;;;;36.85;22.98;;;19.40;99.90;;;;;;5012209;28;20115;-85
2021/07/14 11:30:03;;;;;;;31.92;20.52;;;19.50;99.90;;;;;;5029030;28;20037;-84
2021/07/14 11:32:34;;;;;;;33.80;21.92;;;19.60;99.90;;;;;;5012705;28;20036;-83
2021/07/14 11:35:02;;;;;;;35.60;21.80;;;19.60;99.90;;;;;;5028847;28;20025;-84
2021/07/14 11:37:31;;;;;;;33.88;20.95;;;19.60;99.90;;;;;;5012141;28;20036;-85
2021/07/14 11:40:19;;;;;;;32.97;20.40;;;19.60;99.90;;;;;;5012023;28;20038;-85
2021/07/14 11:42:59;;;;;;;31.50;20.48;;;19.60;99.90;;;;;;5028722;28;20119;-85
2021/07/14 11:45:35;;;;;;;29.05;20.08;;;19.50;99.90;;;;;;5012327;28;20061;-82
2021/07/14 11:48:02;;;;;;;31.70;20.33;;;19.50;99.90;;;;;;5011582;28;20026;-84
2021/07/14 11:50:46;;;;;;;32.53;20.92;;;19.50;99.90;;;;;;5012024;28;20057;-85
2021/07/14 11:53:27;;;;;;;29.02;20.05;;;19.60;99.90;;;;;;5024345;28;20030;-84
2021/07/14 11:56:07;;;;;;;29.60;21.02;;;19.50;99.90;;;;;;5045089;28;20091;-83
2021/07/14 11:58:41;;;;;;;32.25;21.27;;;19.50;99.90;;;;;;5044929;28;20029;-85
2021/07/14 12:01:17;;;;;;;27.05;18.58;;;19.50;99.90;;;;;;5044456;28;20049;-85
2021/07/14 12:04:03;;;;;;;27.95;20.40;;;19.50;99.90;;;;;;5045283;28;20034;-84
2021/07/14 12:06:38;;;;;;;30.73;20.13;;;19.50;99.90;;;;;;5028008;28;20029;-84
2021/07/14 12:09:14;;;;;;;27.67;19.75;;;19.50;99.90;;;;;;5043967;28;20040;-84
2021/07/14 12:11:49;;;;;;;31.67;21.25;;;19.60;99.90;;;;;;5044206;28;20068;-83
2021/07/14 12:14:20;;;;;;;31.80;19.30;;;19.60;99.90;;;;;;5043725;28;20105;-83
2021/07/14 12:17:01;;;;;;;28.95;19.58;;;19.50;99.90;;;;;;5047227;28;20083;-85
2021/07/14 12:19:29;;;;;;;23.52;16.90;;;19.50;99.90;;;;;;5065525;28;20029;-84
2021/07/14 12:21:57;;;;;;;30.98;20.63;;;19.60;99.90;;;;;;5031227;28;20041;-85
2021/07/14 12:24:48;;;;;;;32.38;21.13;;;19.60;99.90;;;;;;5031181;28;20040;-84
2021/07/14 12:27:28;;;;;;;29.40;18.98;;;19.60;99.90;;;;;;5031132;28;20040;-84
2021/07/14 12:29:58;;;;;;;28.55;18.60;;;19.70;99.90;;;;;;5031187;28;20032;-85
2021/07/14 12:32:32;;;;;;;32.40;20.73;;;19.60;99.90;;;;;;5031197;28;20025;-84
2021/07/14 12:34:58;;;;;;;31.80;21.33;;;19.70;99.90;;;;;;5047726;28;20025;-85
2021/07/14 12:37:24;;;;;;;31.13;20.90;;;19.70;99.90;;;;;;5031015;28;20060;-85
2021/07/14 12:39:49;;;;;;;28.58;19.52;;;19.70;99.90;;;;;;5046724;28;20033;-85
2021/07/14 12:42:21;;;;;;;26.77;17.90;;;19.70;99.90;;;;;;5030971;28;20071;-85
2021/07/14 12:44:49;;;;;;;29.27;20.48;;;19.80;99.90;;;;;;5047398;28;20071;-85
2021/07/14 12:50:09;;;;;;;29.63;18.00;;;20.00;99.90;;;;;;5004083;28;20065;-84
2021/07/14 12:52:34;;;;;;;30.27;19.80;;;20.00;99.90;;;;;;5018104;28;20094;-84
2021/07/14 12:55:01;;;;;;;29.88;20.63;;;19.90;99.90;;;;;;5001493;28;20106;-84
2021/07/14 12:57:30;;;;;;;29.10;19.05;;;19.90;99.90;;;;;;5001878;28;20039;-84
2021/07/14 13:00:16;;;;;;;24.95;17.38;;;20.00;99.90;;;;;;4986763;28;20415;-84